M I D A S
Marine Information and Data Acquisition System
Tripno 1084 of the Zeeleeuw from 2006-05-16 11:20:07 to 2006-05-16 13:52:37
Back to CruiseResearch ActivitiesStationsMapUnderway DataData graphs

EquipmentUnitsComment
TimeDGPSUTC
LatitudeDGPSDM.mWGS84
LongitudeDGPSDM.mWGS84
TemperatureSBE03/SBE38deg celciusITS90
ConductivitySBE21S/mITS90
SalinitySBE21 Practical Salinity Units
ChlorophylAChelsea fluorimeterg/lCalibrated in Aceton
Missing or incorrect values are displayed as -999
Sea surface data collected by the RV Zeeleeuw from 2006-05-16 07:39:04 to 2006-05-16 14:03:54
Time Latitude Longitude Temperature Conductivity Salinity ChlorophylA
2006-05-16 07:40:09 51°13.6 2°56.1 20.9427 0.006434 0.036075 31.040426
2006-05-16 07:41:08 51°13.6 2°56.099 20.9475 0.006434 0.036076 30.973007
2006-05-16 07:42:08 51°13.603 2°56.083 20.885 0.006434 0.036078 30.939298
2006-05-16 07:43:08 51°13.618 2°56.006 20.9102 0.006434 0.036078 30.871879
2006-05-16 07:44:08 51°13.651 2°55.891 20.9771 0.006434 0.03608 30.80446
2006-05-16 07:45:08 51°13.695 2°55.788 20.9122 0.006434 0.036081 30.770751
2006-05-16 07:46:08 51°13.715 2°55.737 20.9292 0.006434 0.036082 30.703332
2006-05-16 07:47:08 51°13.716 2°55.725 20.9597 0.006434 0.036084 30.635913
2006-05-16 07:48:08 51°13.721 2°55.713 20.9871 0.006434 0.036084 30.568494
2006-05-16 07:49:08 51°13.76 2°55.699 20.907 0.006434 0.036086 30.501076
2006-05-16 07:50:08 51°13.82 2°55.646 20.9095 0.006434 0.036087 30.467366
2006-05-16 07:51:07 51°13.923 2°55.561 20.7986 0.006434 0.036088 30.399947
2006-05-16 07:52:08 51°14.056 2°55.475 20.8568 0.006434 0.03609 30.332529
2006-05-16 07:53:08 51°14.184 2°55.372 20.9586 0.006434 0.036091 30.298819
2006-05-16 07:54:08 51°14.287 2°55.221 20.8928 0.006434 0.036083 30.197691
2006-05-16 07:55:07 51°14.371 2°55.041 20.9537 0.006434 0.036083 30.197691
2006-05-16 07:56:08 51°14.446 2°54.82 20.8992 0.006434 0.036084 30.096563
2006-05-16 07:57:08 51°14.512 2°54.522 20.851 0.006434 0.036086 30.029144
2006-05-16 07:58:08 51°14.586 2°54.205 20.8631 0.006434 0.036088 29.961725
2006-05-16 07:59:08 51°14.624 2°53.854 20.7738 0.00633 0.035641 29.961725
2006-05-16 08:00:08 51°14.675 2°53.516 20.8499 0.00633 0.035642 29.860597
2006-05-16 08:01:07 51°14.684 2°53.174 20.7885 0.00633 0.035645 29.826888
2006-05-16 08:02:08 51°14.677 2°52.814 20.7984 0.00633 0.035648 29.759469
2006-05-16 08:03:08 51°14.667 2°52.46 15.8251 0.00633 0.035669 29.658341
2006-05-16 08:04:08 51°14.627 2°52.107 14.071 4.1158 33.331643 27.197554
2006-05-16 08:05:08 51°14.597 2°51.752 13.9149 4.075864 33.663036 24.264836
2006-05-16 08:06:08 51°14.523 2°51.411 13.8902 4.040135 33.376856 23.388392
2006-05-16 08:07:08 51°14.484 2°51.054 13.7503 4.052046 33.584708 23.658067
2006-05-16 08:08:08 51°14.422 2°50.704 13.7324 4.074708 33.913377 24.365965
2006-05-16 08:09:08 51°14.381 2°50.344 13.6762 4.064696 33.860317 24.804187
2006-05-16 08:10:08 51°14.327 2°49.986 13.6671 4.067647 33.91222 24.939024
2006-05-16 08:11:08 51°14.28 2°49.624 13.6502 4.065223 33.900532 25.17499
2006-05-16 08:12:08 51°14.223 2°49.266 13.6495 4.06143 33.8924 25.444665
2006-05-16 08:13:08 51°14.173 2°48.905 13.6228 4.048255 33.771731 25.849178
2006-05-16 08:14:09 51°14.122 2°48.543 13.5967 4.038664 33.702736 26.253691
2006-05-16 08:15:09 51°14.07 2°48.231 13.6073 4.060165 33.925568 26.826751
2006-05-16 08:16:09 51°14.053 2°48.058 13.6035 4.05616 33.891618 27.264973
2006-05-16 08:17:09 51°14.045 2°48.007 13.6071 4.050258 33.83521 27.46723
2006-05-16 08:18:09 51°14.031 2°47.989 13.5738 4.043197 33.771408 27.804324
2006-05-16 08:19:09 51°14.018 2°47.971 13.6012 4.055107 33.891327 28.141418
2006-05-16 08:20:09 51°14.007 2°47.954 13.6046 4.053736 33.871731 28.309965
2006-05-16 08:21:08 51°13.997 2°47.938 13.5621 4.052682 33.870074 28.411093
2006-05-16 08:22:09 51°13.986 2°47.921 13.5398 4.047518 33.845044 28.613349
2006-05-16 08:23:07 51°13.977 2°47.903 13.5735 4.034344 33.737048 28.714477
2006-05-16 08:24:09 51°13.968 2°47.885 13.6067 4.0413 33.769338 28.57964
2006-05-16 08:25:09 51°13.96 2°47.867 13.6156 4.035397 33.688549 28.54593
2006-05-16 08:26:09 51°13.953 2°47.849 13.6592 4.02275 33.549845 28.54593
2006-05-16 08:27:08 51°14.016 2°47.821 13.6168 4.039085 33.680956 28.680768
2006-05-16 08:28:08 51°14.084 2°47.919 13.6169 4.039613 33.723765 29.017862
2006-05-16 08:29:09 51°14.093 2°48.028 13.5989 4.041089 33.751078 29.085281
2006-05-16 08:30:09 51°14.091 2°48.117 13.6079 4.038454 33.726518 29.11899
2006-05-16 08:31:09 51°14.086 2°48.201 13.6194 4.010103 33.455693 29.11899
2006-05-16 08:32:08 51°14.07 2°48.279 13.5937 4.031814 33.651784 29.253828
2006-05-16 08:33:08 51°14.047 2°48.356 13.607 4.03076 33.663614 29.287537
2006-05-16 08:34:08 51°14.03 2°48.434 13.6238 4.029495 33.635594 29.220118
2006-05-16 08:35:09 51°14.04 2°48.519 13.6682 4.0296 33.608883 29.1527
2006-05-16 08:36:08 51°14.067 2°48.596 13.6369 4.050047 33.781634 29.220118
2006-05-16 08:37:08 51°14.094 2°48.663 13.633 4.052998 33.835597 29.321247
2006-05-16 08:38:09 51°14.124 2°48.725 13.6437 4.05342 33.840885 29.422375
2006-05-16 08:39:07 51°14.154 2°48.782 13.6455 4.052471 33.82525 29.456084
2006-05-16 08:40:09 51°14.187 2°48.842 13.6779 4.049625 33.793987 29.422375
2006-05-16 08:41:08 51°14.217 2°48.9 13.6672 4.045409 33.727632 29.354956
2006-05-16 08:42:09 51°14.248 2°48.959 13.6902 4.047728 33.760047 29.523503
2006-05-16 08:43:08 51°14.276 2°49.017 13.6794 4.04699 33.738284 29.590922
2006-05-16 08:44:09 51°14.306 2°49.079 13.6579 4.051206 33.789038 29.759469
2006-05-16 08:45:08 51°14.337 2°49.141 13.6779 4.054473 33.828962 29.725759
2006-05-16 08:46:09 51°14.37 2°49.202 13.7171 4.05089 33.771863 29.557212
2006-05-16 08:47:09 51°14.403 2°49.262 13.7151 4.043617 33.679883 29.456084
2006-05-16 08:48:06 51°14.433 2°49.319 13.7165 4.036766 33.618901 29.624631
2006-05-16 08:49:09 51°14.466 2°49.382 13.7263 4.03898 33.64217 29.725759
2006-05-16 08:50:08 51°14.496 2°49.442 13.7514 4.033288 33.571777 29.624631
2006-05-16 08:51:09 51°14.527 2°49.504 13.7605 4.026542 33.489009 29.557212
2006-05-16 08:52:09 51°14.558 2°49.564 13.7577 4.02454 33.468416 29.523503
2006-05-16 08:53:08 51°14.589 2°49.623 13.7587 4.02201 33.444277 29.523503
2006-05-16 08:54:09 51°14.623 2°49.68 13.7574 4.023381 33.456989 29.489794
2006-05-16 08:55:08 51°14.661 2°49.73 13.7609 4.018322 33.408718 29.456084
2006-05-16 08:56:08 51°14.699 2°49.781 13.7646 4.021905 33.439953 29.456084
2006-05-16 08:57:08 51°14.737 2°49.831 13.7693 4.020113 33.421326 29.388665
2006-05-16 08:58:09 51°14.774 2°49.883 13.7698 4.012947 33.34952 29.388665
2006-05-16 08:59:08 51°14.811 2°49.935 13.7831 4.014422 33.359864 29.253828
2006-05-16 09:00:08 51°14.848 2°49.989 13.7881 4.016319 33.368109 29.287537
2006-05-16 09:01:09 51°14.882 2°50.041 13.7852 4.019691 33.394698 29.253828
2006-05-16 09:02:08 51°14.917 2°50.092 13.788 4.02064 33.406162 29.220118
2006-05-16 09:03:08 51°14.941 2°50.166 13.7809 4.022643 33.429406 29.489794
2006-05-16 09:04:09 51°14.932 2°50.253 13.7836 4.018111 33.386052 29.388665
2006-05-16 09:05:09 51°14.855 2°50.283 13.789 4.014527 33.349502 29.017862
2006-05-16 09:06:09 51°14.779 2°50.202 13.8011 4.015054 33.349718 28.680768
2006-05-16 09:07:09 51°14.752 2°50.07 13.803 4.016635 33.355033 28.57964
2006-05-16 09:08:09 51°14.759 2°49.955 13.8009 4.014949 33.342742 28.613349
2006-05-16 09:09:08 51°14.768 2°49.874 13.7996 4.011576 33.312163 28.444802
2006-05-16 09:10:09 51°14.773 2°49.811 13.7964 4.014422 33.339193 28.444802
2006-05-16 09:11:08 51°14.777 2°49.751 13.7953 4.013895 33.336309 28.444802
2006-05-16 09:12:09 51°14.824 2°49.621 13.7738 4.022115 33.417168 28.647059
2006-05-16 09:13:09 51°14.898 2°49.57 13.7632 4.022853 33.44273 28.57964
2006-05-16 09:14:09 51°14.949 2°49.561 13.7749 4.023064 33.454725 28.478512
2006-05-16 09:15:09 51°14.994 2°49.557 13.7796 4.022748 33.433057 28.242546
2006-05-16 09:16:09 51°15.039 2°49.554 13.736 4.025383 33.485623 28.141418
2006-05-16 09:17:09 51°15.083 2°49.55 13.7643 4.020851 33.447578 28.00658
2006-05-16 09:18:08 51°15.127 2°49.543 13.7623 4.015898 33.384897 28.00658
2006-05-16 09:19:09 51°15.172 2°49.54 13.7702 4.012314 33.348327 27.939161
2006-05-16 09:20:09 51°15.194 2°49.601 13.7641 4.015265 33.3797 28.073999
2006-05-16 09:21:09 51°15.161 2°49.701 13.7517 4.010417 33.337407 28.040289
2006-05-16 09:22:08 51°15.087 2°49.764 13.7643 4.010523 33.341053 28.073999
2006-05-16 09:23:09 51°15.004 2°49.735 13.7641 4.011998 33.341393 28.175127
2006-05-16 09:24:08 51°14.95 2°49.656 13.7542 4.014106 33.368947 28.107708
2006-05-16 09:25:09 51°14.915 2°49.581 13.7496 4.017268 33.404289 28.175127
2006-05-16 09:26:08 51°14.888 2°49.524 13.7547 4.017373 33.40861 28.242546
2006-05-16 09:27:09 51°14.869 2°49.437 13.7557 4.016636 33.397754 28.208836
2006-05-16 09:28:09 51°14.915 2°49.373 13.7401 4.018322 33.414067 28.276255
2006-05-16 09:29:08 51°14.938 2°49.451 13.7276 4.018217 33.431156 28.141418
2006-05-16 09:30:08 51°14.885 2°49.529 13.726 4.016741 33.408762 28.141418
2006-05-16 09:31:08 51°14.821 2°49.542 13.7805 4.015687 33.386282 28.242546
2006-05-16 09:32:09 51°14.761 2°49.528 13.7697 4.014211 33.35791 28.276255
2006-05-16 09:33:09 51°14.711 2°49.494 13.7847 4.014844 33.36978 28.411093
2006-05-16 09:34:09 51°14.67 2°49.451 13.785 4.013684 33.343021 28.377383
2006-05-16 09:35:09 51°14.629 2°49.404 13.8033 4.014106 33.343594 28.411093
2006-05-16 09:36:09 51°14.588 2°49.353 13.8117 4.014527 33.334173 28.276255
2006-05-16 09:37:08 51°14.547 2°49.297 13.8057 4.015054 33.334392 28.276255
2006-05-16 09:38:09 51°14.507 2°49.24 13.7952 4.01537 33.343316 28.444802
2006-05-16 09:39:09 51°14.468 2°49.184 13.7913 4.014738 33.342789 28.411093
2006-05-16 09:40:09 51°14.43 2°49.128 13.783 4.01537 33.355315 28.512221
2006-05-16 09:41:09 51°14.392 2°49.073 13.7818 4.015792 33.365893 28.613349
2006-05-16 09:42:09 51°14.356 2°49.019 13.781 4.016741 33.377356 28.478512
2006-05-16 09:43:09 51°14.319 2°48.964 13.7791 4.016951 33.375973 28.478512
2006-05-16 09:44:09 51°14.284 2°48.909 13.7744 4.021167 33.420403 28.647059
2006-05-16 09:45:09 51°14.248 2°48.856 13.7718 4.024434 33.460742 28.984153
2006-05-16 09:46:09 51°14.212 2°48.805 13.76 4.024224 33.455439 28.815606
2006-05-16 09:47:09 51°14.177 2°48.754 13.7311 4.027069 33.4939 29.1527
2006-05-16 09:48:09 51°14.14 2°48.699 13.7173 4.030337 33.549071 29.658341
2006-05-16 09:49:09 51°14.104 2°48.615 13.714 4.029915 33.546499 29.354956
2006-05-16 09:50:09 51°14.07 2°48.516 13.709 4.031707 33.578616 29.826888
2006-05-16 09:51:09 51°14.06 2°48.411 13.7035 4.031391 33.572986 29.69205
2006-05-16 09:52:09 51°14.069 2°48.312 13.7375 4.031497 33.578676 29.590922
2006-05-16 09:53:09 51°14.093 2°48.228 13.7416 4.029494 33.532507 28.984153
2006-05-16 09:54:09 51°14.132 2°48.185 13.7354 4.029283 33.531221 28.950443
2006-05-16 09:55:09 51°14.172 2°48.188 13.7303 4.026964 33.513717 29.456084
2006-05-16 09:56:09 51°14.186 2°48.205 13.7404 4.026859 33.519452 29.961725
2006-05-16 09:57:09 51°14.191 2°48.213 13.7639 4.027913 33.505078 29.253828
2006-05-16 09:58:09 51°14.197 2°48.218 13.7799 4.023591 33.450243 28.883024
2006-05-16 09:59:09 51°14.213 2°48.323 13.7609 4.028545 33.500219 29.456084
2006-05-16 10:00:09 51°14.253 2°48.564 13.7591 4.026226 33.474685 29.220118
2006-05-16 10:01:09 51°14.294 2°48.827 13.7312 4.021167 33.437123 29.422375
2006-05-16 10:02:09 51°14.325 2°49.109 13.7671 4.025383 33.497694 29.658341
2006-05-16 10:03:08 51°14.36 2°49.398 13.7814 4.020113 33.411298 28.781896
2006-05-16 10:04:09 51°14.393 2°49.703 13.7738 4.024961 33.459605 29.759469
2006-05-16 10:05:08 51°14.418 2°49.999 13.7928 4.022326 33.427142 29.860597
2006-05-16 10:06:09 51°14.445 2°50.305 13.8302 4.014 33.317307 29.860597
2006-05-16 10:07:09 51°14.475 2°50.605 13.8111 4.011365 33.294905 30.501076
2006-05-16 10:08:09 51°14.503 2°50.906 13.8151 4.007993 33.272319 30.80446
2006-05-16 10:09:09 51°14.532 2°51.204 13.8376 4.00072 33.184431 30.366238
2006-05-16 10:10:09 51°14.554 2°51.506 13.8547 3.995135 33.123498 30.501076
2006-05-16 10:11:09 51°14.577 2°51.81 13.8948 3.994502 33.098493 30.062853
2006-05-16 10:12:09 51°14.582 2°52.119 13.8976 3.999666 33.117161 30.366238
2006-05-16 10:13:08 51°14.592 2°52.423 13.933 3.99408 33.060969 30.197691
2006-05-16 10:14:09 51°14.591 2°52.74 13.9081 3.98744 32.995736 30.2314
2006-05-16 10:15:09 51°14.58 2°52.998 13.9345 3.97395 32.86081 30.130272
2006-05-16 10:16:09 51°14.571 2°53.213 13.9065 3.96573 32.77198 29.961725
2006-05-16 10:17:09 51°14.556 2°53.426 13.9115 3.972159 32.85803 31.175264
2006-05-16 10:18:09 51°14.539 2°53.639 13.9528 3.966152 32.794791 31.242683
2006-05-16 10:19:09 51°14.52 2°53.816 13.9613 3.962884 32.739251 30.770751
2006-05-16 10:20:09 51°14.499 2°53.935 13.9816 3.959512 32.689982 30.669623
2006-05-16 10:21:09 51°14.493 2°54.041 14.0022 3.951081 32.595549 30.501076
2006-05-16 10:22:09 51°14.496 2°54.256 14.0034 3.943177 32.500923 30.501076
2006-05-16 10:23:09 51°14.476 2°54.512 14.0105 3.933165 32.416693 30.83817
2006-05-16 10:24:09 51°14.445 2°54.772 13.9597 3.915988 32.253209 31.175264
2006-05-16 10:25:09 51°14.385 2°55.024 13.9275 3.906188 32.215735 33.029281
2006-05-16 10:26:09 51°14.287 2°55.233 14.3531 3.783639 30.985419 31.95058
2006-05-16 10:27:08 51°14.175 2°55.375 14.3238 3.619179 29.302323 32.119127
2006-05-16 10:28:09 51°14.061 2°55.476 14.3935 3.5762 28.910688 32.253965
2006-05-16 10:29:09 51°13.962 2°55.546 14.3437 3.572724 28.868178 32.624768
2006-05-16 10:30:09 51°13.871 2°55.608 14.3091 3.576306 28.924121 33.366375
2006-05-16 10:31:08 51°13.791 2°55.66 14.3768 3.60696 29.233843 33.872016
2006-05-16 10:32:08 51°13.729 2°55.727 14.8444 3.477401 27.98291 34.411366
2006-05-16 10:33:08 51°13.685 2°55.821 14.5993 3.089713 24.292924 33.197828
2006-05-16 10:34:09 51°13.647 2°55.915 14.3863 3.357763 26.801674 34.276529
2006-05-16 10:35:09 51°13.622 2°55.992 14.5521 3.502784 28.20887 34.107982
2006-05-16 10:36:09 51°13.608 2°56.058 14.3553 3.438642 27.589453 33.905725
2006-05-16 10:37:09 51°13.602 2°56.093 14.2715 3.508472 28.279041 33.501212
2006-05-16 10:38:08 51°13.601 2°56.098 14.2951 3.638774 29.550476 34.512494
2006-05-16 10:39:08 51°13.602 2°56.099 14.2794 3.634771 29.517866 38.220529
2006-05-16 10:40:09 51°13.603 2°56.099 14.2038 3.625606 29.432917 41.692597
2006-05-16 10:41:09 51°13.603 2°56.1 14.1837 3.637826 29.552983 46.277076
2006-05-16 10:42:09 51°13.604 2°56.099 14.2693 3.679544 29.9639 41.153247
2006-05-16 10:43:09 51°13.604 2°56.099 14.1167 3.664058 29.805019 39.231811
2006-05-16 10:44:08 51°13.604 2°56.099 14.2184 3.692187 30.097314 37.175537
2006-05-16 10:45:09 51°13.603 2°56.099 14.2199 3.635825 29.536672 37.782306
2006-05-16 10:46:09 51°13.603 2°56.099 14.2244 3.635825 29.535509 37.344084
2006-05-16 10:47:09 51°13.603 2°56.099 14.2453 3.630241 29.482827 35.928289
2006-05-16 10:48:09 51°13.603 2°56.099 14.2824 3.593055 29.11737 35.119264
2006-05-16 10:49:09 51°13.603 2°56.099 14.2665 3.58821 29.064074 34.78217
2006-05-16 10:50:09 51°13.605 2°56.099 14.2411 3.604643 29.225638 34.849589
2006-05-16 10:51:09 51°13.605 2°56.1 14.3106 3.61623 29.342073 34.849589
2006-05-16 10:52:09 51°13.604 2°56.099 14.2198 3.580204 28.983004 35.119264
2006-05-16 10:53:08 51°13.604 2°56.099 14.2434 3.616546 29.343764 35.793452
2006-05-16 10:54:08 51°13.605 2°56.099 14.2265 3.621919 29.392742 36.096836
2006-05-16 10:55:09 51°13.605 2°56.1 14.22 3.641619 29.586032 36.46764
2006-05-16 10:56:08 51°13.604 2°56.099 14.2209 3.64657 29.636546 36.299093
2006-05-16 10:57:09 51°13.604 2°56.099 14.2157 3.643936 29.610443 36.43393
2006-05-16 10:58:08 51°13.604 2°56.099 14.203 3.649098 29.661121 36.771024
2006-05-16 10:59:09 51°13.604 2°56.099 14.2141 3.655946 29.72939 36.973281
2006-05-16 11:00:09 51°13.605 2°56.1 14.1963 3.656578 29.733341 38.085691
2006-05-16 11:01:08 51°13.605 2°56.1 14.1709 3.670589 29.869934 38.355366
2006-05-16 11:02:08 51°13.605 2°56.1 14.206 3.690501 30.067205 39.063264
2006-05-16 11:03:09 51°13.605 2°56.1 14.2249 3.659949 29.766137 37.917144
2006-05-16 11:04:09 51°13.604 2°56.1 14.242 3.636562 29.534016 38.254238
2006-05-16 11:05:09 51°13.604 2°56.1 14.2186 3.629398 29.460141 38.456494
2006-05-16 11:06:09 51°13.604 2°56.099 14.1845 3.662688 29.789708 38.321657
2006-05-16 11:07:09 51°13.604 2°56.1 14.2008 3.68281 29.9899 38.894717
2006-05-16 11:08:09 51°13.603 2°56.1 14.1817 3.670168 29.864947 38.389076
2006-05-16 11:09:09 51°13.604 2°56.1 14.133 3.693767 30.096179 39.26552
2006-05-16 11:10:09 51°13.604 2°56.099 14.1254 3.728008 30.438853 39.535195
2006-05-16 11:11:09 51°13.603 2°56.099 14.1522 3.726533 30.423662 39.198101
2006-05-16 11:12:09 51°13.603 2°56.099 14.1544 3.704092 30.200405 38.827298
2006-05-16 11:13:09 51°13.603 2°56.099 14.154 3.710413 30.261873 39.029554
2006-05-16 11:14:09 51°13.602 2°56.098 14.1559 3.710202 30.259365 38.894717
2006-05-16 11:15:09 51°13.602 2°56.098 14.1483 3.708833 30.244562 38.557623
2006-05-16 11:16:09 51°13.601 2°56.098 14.1262 3.71979 30.356478 38.591332
2006-05-16 11:17:09 51°13.602 2°56.098 14.1166 3.732012 30.482424 38.456494
2006-05-16 11:18:09 51°13.602 2°56.098 14.1198 3.731274 30.48115 38.254238
2006-05-16 11:19:09 51°13.603 2°56.099 14.1234 3.730537 30.475055 38.085691
2006-05-16 11:20:09 51°13.603 2°56.099 14.1382 3.72843 30.456522 37.917144
2006-05-16 11:21:09 51°13.601 2°56.098 14.1808 3.717683 30.345157 37.613759
2006-05-16 11:22:09 51°13.602 2°56.083 14.3081 3.650047 29.679038 37.242956
2006-05-16 11:23:09 51°13.614 2°56.001 14.2725 3.592528 29.102901 37.512631
2006-05-16 11:24:09 51°13.643 2°55.903 14.2666 3.620339 29.374458 36.771024
2006-05-16 11:25:09 51°13.693 2°55.806 14.335 3.587577 29.056107 36.265383
2006-05-16 11:26:09 51°13.728 2°55.721 14.3478 3.582732 28.989763 36.400221
2006-05-16 11:27:09 51°13.733 2°55.727 14.4555 3.52227 28.417983 36.366512
2006-05-16 11:28:09 51°13.747 2°55.715 14.3891 3.441803 27.655366 36.366512
2006-05-16 11:29:08 51°13.813 2°55.656 14.5131 3.540387 28.585181 36.096836
2006-05-16 11:30:09 51°13.898 2°55.581 14.4512 3.336387 26.64768 36.535059
2006-05-16 11:31:09 51°13.979 2°55.528 14.4106 3.524797 28.408288 36.130546
2006-05-16 11:32:09 51°14.05 2°55.482 14.4447 3.525219 28.415393 35.827161
2006-05-16 11:33:09 51°14.119 2°55.434 14.4983 3.486774 28.038531 35.827161
2006-05-16 11:34:09 51°14.211 2°55.344 14.5194 3.470659 27.863342 35.793452
2006-05-16 11:35:09 51°14.307 2°55.194 14.556 3.458336 27.723417 35.490067
2006-05-16 11:36:09 51°14.397 2°54.999 14.4156 3.511735 28.216999 35.254101
2006-05-16 11:37:08 51°14.523 2°54.792 14.1033 3.704301 30.10191 34.714751
2006-05-16 11:38:09 51°14.64 2°54.511 14.0462 3.852656 31.622575 33.804597
2006-05-16 11:39:09 51°14.761 2°54.23 13.8791 3.867725 31.836646 33.63605
2006-05-16 11:40:09 51°14.842 2°53.911 13.8846 3.857927 31.826513 33.231537
2006-05-16 11:41:08 51°14.858 2°53.572 13.8988 3.86172 31.858189 32.085418
2006-05-16 11:42:09 51°14.831 2°53.219 13.9073 3.874892 31.977951 31.310101
2006-05-16 11:43:08 51°14.802 2°52.879 13.958 3.884586 32.05175 30.534785
2006-05-16 11:44:08 51°14.752 2°52.535 13.9829 3.875734 31.943704 30.163982
2006-05-16 11:45:09 51°14.713 2°52.177 13.9887 3.853289 31.706248 29.928016
2006-05-16 11:46:09 51°14.664 2°51.825 13.8407 3.855713 31.753687 29.725759
2006-05-16 11:47:09 51°14.615 2°51.474 13.7246 3.886801 32.177189 30.669623
2006-05-16 11:48:09 51°14.567 2°51.125 13.6895 3.89871 32.345872 30.332529
2006-05-16 11:49:09 51°14.51 2°50.777 13.6808 3.906297 32.441362 30.366238
2006-05-16 11:50:09 51°14.459 2°50.43 13.6839 3.914201 32.52038 30.399947
2006-05-16 11:51:09 51°14.398 2°50.091 13.7179 3.930324 32.655954 30.534785
2006-05-16 11:52:09 51°14.335 2°49.756 13.7362 3.947501 32.793391 30.635913
2006-05-16 11:53:08 51°14.271 2°49.428 13.7411 3.957302 32.86903 30.602204
2006-05-16 11:54:09 51°14.207 2°49.088 13.7479 3.968051 32.965955 30.635913
2006-05-16 11:55:09 51°14.143 2°48.752 13.7537 3.971634 32.990564 30.366238
2006-05-16 11:56:09 51°14.076 2°48.47 13.7605 3.97743 33.043598 30.163982
2006-05-16 11:57:09 51°14.043 2°48.298 13.7455 3.985229 33.116526 30.096563
2006-05-16 11:58:08 51°14.017 2°48.176 13.7395 3.988813 33.160359 30.062853
2006-05-16 11:59:09 51°13.997 2°48.09 13.7455 3.991658 33.190068 30.096563
2006-05-16 12:00:09 51°13.991 2°48.082 13.7303 3.992712 33.187213 29.995435
2006-05-16 12:01:09 51°13.986 2°48.08 13.7014 4.007994 33.354313 30.366238
2006-05-16 12:02:09 51°13.98 2°48.082 13.7093 4.008521 33.367899 30.602204
2006-05-16 12:03:09 51°13.974 2°48.085 13.7216 4.007889 33.357346 30.737042
2006-05-16 12:04:09 51°13.969 2°48.09 13.7614 4.006518 33.329929 30.635913
2006-05-16 12:05:09 51°13.962 2°48.097 13.7874 4.006307 33.305957 30.501076
2006-05-16 12:06:09 51°13.957 2°48.106 13.8717 4.003461 33.236332 30.298819
2006-05-16 12:07:09 51°13.951 2°48.115 13.8905 3.996504 33.103794 29.928016
2006-05-16 12:08:09 51°13.945 2°48.125 13.912 3.996715 33.099802 29.961725
2006-05-16 12:09:09 51°13.94 2°48.135 13.8981 3.995871 33.076192 29.961725
2006-05-16 12:10:08 51°13.908 2°48.13 13.913 3.995555 33.073932 29.961725
2006-05-16 12:11:09 51°13.867 2°48.074 13.9341 3.995239 33.059158 29.826888
2006-05-16 12:12:09 51°13.852 2°47.99 13.9236 3.995977 33.059383 29.928016
2006-05-16 12:13:09 51°13.916 2°47.897 13.8091 3.998085 33.100582 30.029144
2006-05-16 12:14:09 51°13.99 2°47.891 13.7919 4.002407 33.235207 30.399947
2006-05-16 12:15:09 51°14.059 2°47.921 13.8788 4.004199 33.2425 30.163982
2006-05-16 12:16:09 51°14.125 2°47.964 13.87 4.004725 33.172479 30.029144
2006-05-16 12:17:09 51°14.181 2°48.019 13.8231 4.008308 33.222147 30.096563
2006-05-16 12:18:08 51°14.224 2°48.079 13.8621 4.010417 33.289447 30.197691
2006-05-16 12:19:09 51°14.262 2°48.136 13.9068 4.00873 33.21942 29.928016
2006-05-16 12:20:08 51°14.295 2°48.19 13.9239 4.008518 33.194306 29.894306
2006-05-16 12:21:08 51°14.325 2°48.248 13.8644 4.007359 33.169059 29.961725
2006-05-16 12:22:09 51°14.352 2°48.312 13.8822 4.007781 33.223901 29.995435
2006-05-16 12:23:09 51°14.377 2°48.377 13.916 4.006516 33.19499 29.860597
2006-05-16 12:24:09 51°14.402 2°48.443 13.9619 4.005356 33.144631 29.826888
2006-05-16 12:25:09 51°14.427 2°48.509 13.9597 4.00641 33.126002 29.826888
2006-05-16 12:26:09 51°14.453 2°48.576 13.9504 4.004618 33.115406 29.860597
2006-05-16 12:27:09 51°14.478 2°48.644 13.9752 4.002721 33.099884 29.894306
2006-05-16 12:28:09 51°14.504 2°48.712 13.9719 4.003037 33.090293 29.894306
2006-05-16 12:29:09 51°14.531 2°48.781 13.9639 4.003353 33.094524 29.961725
2006-05-16 12:30:09 51°14.557 2°48.85 13.9579 4.002932 33.095244 30.062853
2006-05-16 12:31:09 51°14.586 2°48.919 13.959 4.000824 33.078439 30.130272
2006-05-16 12:32:09 51°14.612 2°48.989 13.8693 3.999138 33.068151 30.2314
2006-05-16 12:33:09 51°14.634 2°49.063 13.8334 3.99935 33.151898 30.298819
2006-05-16 12:34:09 51°14.653 2°49.14 13.8792 3.994608 33.114659 30.298819
2006-05-16 12:35:09 51°14.672 2°49.218 13.924 3.992499 33.057571 30.163982
2006-05-16 12:36:09 51°14.691 2°49.297 13.9243 3.991234 33.016284 30.163982
2006-05-16 12:37:09 51°14.71 2°49.376 13.931 3.990918 33.006796 30.130272
2006-05-16 12:38:09 51°14.728 2°49.456 13.9408 3.990075 32.999676 30.2314
2006-05-16 12:39:09 51°14.747 2°49.536 13.9238 3.988389 32.988063 30.2314
2006-05-16 12:40:09 51°14.767 2°49.615 13.9161 3.986597 32.976133 30.26511
2006-05-16 12:41:09 51°14.788 2°49.694 13.9115 3.984806 32.968796 30.366238
2006-05-16 12:42:09 51°14.809 2°49.774 13.9198 3.983435 32.956812 30.366238
2006-05-16 12:43:09 51°14.83 2°49.853 13.9276 3.981855 32.9337 30.366238
2006-05-16 12:44:09 51°14.852 2°49.934 13.929 3.981644 32.927167 30.433657
2006-05-16 12:45:09 51°14.875 2°50.014 13.9322 3.981644 32.922579 30.399947
2006-05-16 12:46:09 51°14.897 2°50.095 13.9245 3.978166 32.904923 30.467366
2006-05-16 12:47:09 51°14.921 2°50.175 13.9438 3.974056 32.862436 30.399947
2006-05-16 12:48:09 51°14.945 2°50.256 13.9356 3.973845 32.83957 30.366238
2006-05-16 12:49:09 51°14.969 2°50.337 13.9463 3.970262 32.812431 30.399947
2006-05-16 12:50:08 51°14.992 2°50.418 13.8766 3.967943 32.785195 30.433657
2006-05-16 12:51:09 51°15.012 2°50.501 13.7596 3.966785 32.879206 30.973007
2006-05-16 12:52:09 51°15.027 2°50.577 13.776 3.96099 32.862396 31.006717
2006-05-16 12:53:09 51°15.041 2°50.646 13.931 3.959303 32.815963 30.939298
2006-05-16 12:54:09 51°15.054 2°50.706 13.9799 3.963517 32.747029 30.669623
2006-05-16 12:55:09 51°15.066 2°50.771 13.7763 3.966468 32.781387 30.973007
2006-05-16 12:56:09 51°15.059 2°50.879 13.767 3.964994 32.885635 31.074136
2006-05-16 12:57:09 51°15.038 2°50.985 13.8054 3.957407 32.827285 31.276392
2006-05-16 12:58:09 51°15.007 2°51.072 13.7723 3.956669 32.828339 31.512358
2006-05-16 12:59:08 51°14.965 2°51.135 13.7963 3.952875 32.789313 31.310101
2006-05-16 13:00:09 51°14.92 2°51.137 13.902 3.952663 32.738274 31.040426
2006-05-16 13:01:09 51°14.909 2°51.052 13.9736 3.959301 32.695193 30.939298
2006-05-16 13:02:09 51°14.994 2°50.899 13.9257 3.964254 32.746658 31.107845
2006-05-16 13:03:09 51°15.114 2°50.894 13.9199 3.970367 32.802305 31.040426
2006-05-16 13:04:09 51°15.183 2°50.963 13.8136 3.967522 32.823764 31.310101
2006-05-16 13:05:09 51°15.227 2°51.039 13.7505 3.968155 32.87808 31.37752
2006-05-16 13:06:09 51°15.259 2°51.111 13.7678 3.980276 33.08122 31.37752
2006-05-16 13:07:09 51°15.286 2°51.176 13.9912 3.962148 32.81015 31.276392
2006-05-16 13:08:09 51°15.313 2°51.235 14.0289 3.967205 32.728268 31.242683
2006-05-16 13:09:09 51°15.339 2°51.29 13.9672 3.968574 32.723324 31.41123
2006-05-16 13:10:09 51°15.375 2°51.348 13.9137 3.96278 32.768271 31.714614
2006-05-16 13:11:09 51°15.442 2°51.394 14.0075 3.961409 32.732825 31.512358
2006-05-16 13:12:09 51°15.514 2°51.392 14.0354 3.966678 32.714976 31.343811
2006-05-16 13:13:09 51°15.564 2°51.345 13.9888 3.966677 32.712378 31.343811
2006-05-16 13:14:08 51°15.572 2°51.283 14.0059 3.966256 32.724744 31.343811
2006-05-16 13:15:09 51°15.557 2°51.218 13.8642 3.965624 32.728679 31.444939
2006-05-16 13:16:09 51°15.54 2°51.147 13.905 3.965942 32.855668 31.512358
2006-05-16 13:17:09 51°15.51 2°51.085 13.8467 3.964149 32.773069 31.546067
2006-05-16 13:18:09 51°15.474 2°51.018 13.7549 3.964151 32.868642 31.916871
2006-05-16 13:19:09 51°15.441 2°50.944 13.7632 3.965732 32.924702 31.849452
2006-05-16 13:20:09 51°15.407 2°50.87 13.8086 3.972055 32.968074 31.748324
2006-05-16 13:21:09 51°15.374 2°50.8 13.924 3.976692 32.997138 31.748324
2006-05-16 13:22:09 51°15.342 2°50.732 13.9268 3.985648 32.945738 31.680905
2006-05-16 13:23:09 51°15.308 2°50.667 13.9854 3.991128 32.999544 31.647195
2006-05-16 13:24:09 51°15.273 2°50.605 13.9995 3.995554 32.99769 31.748324
2006-05-16 13:25:09 51°15.231 2°50.551 13.9731 3.998083 33.006561 31.815742
2006-05-16 13:26:09 51°15.185 2°50.506 13.7537 3.997347 33.106303 31.984289
2006-05-16 13:27:09 51°15.137 2°50.464 13.8193 3.99914 33.193002 31.883161
2006-05-16 13:28:09 51°15.093 2°50.419 13.7765 4.004726 33.248709 31.849452
2006-05-16 13:29:09 51°15.053 2°50.379 13.7514 4.007361 33.301734 31.748324
2006-05-16 13:30:08 51°15.015 2°50.342 13.7633 4.007993 33.321597 31.748324
2006-05-16 13:31:09 51°14.976 2°50.307 13.7726 4.009047 33.317367 31.714614
2006-05-16 13:32:08 51°14.938 2°50.274 13.7858 4.009679 33.304574 31.748324
2006-05-16 13:33:09 51°14.9 2°50.238 13.7629 4.010101 33.315808 31.782033
2006-05-16 13:34:09 51°14.86 2°50.211 13.8838 4.009679 33.321897 31.782033
2006-05-16 13:35:09 51°14.807 2°50.293 13.8491 4.003776 33.141256 31.748324
2006-05-16 13:36:09 51°14.855 2°50.572 13.8133 4.005463 33.215051 31.883161
2006-05-16 13:37:09 51°14.929 2°50.942 13.7479 4.006939 33.284508 32.186546
2006-05-16 13:38:09 51°14.956 2°51.329 13.7258 4.004621 33.299651 32.388802
2006-05-16 13:39:09 51°14.949 2°51.713 13.7869 4.0003 33.254911 32.48993
2006-05-16 13:40:09 51°14.944 2°52.095 13.8414 3.989444 33.124435 32.692187
2006-05-16 13:41:08 51°14.917 2°52.461 13.8424 3.974056 32.905026 32.48993
2006-05-16 13:42:09 51°14.854 2°52.823 13.8555 3.960673 32.798492 32.52364
2006-05-16 13:43:09 51°14.796 2°53.181 14.0658 3.947183 32.660954 32.422512
2006-05-16 13:44:09 51°14.74 2°53.542 14.091 3.965939 32.626593 32.557349
2006-05-16 13:45:09 51°14.67 2°53.891 14.1651 3.981852 32.795965 34.613623
2006-05-16 13:46:09 51°14.593 2°54.241 14.0502 3.987753 32.797542 32.827024
2006-05-16 13:47:09 51°14.505 2°54.585 13.9859 3.980588 32.824678 33.0967
2006-05-16 13:48:09 51°14.411 2°54.926 13.9905 3.985753 32.902202 34.478785
2006-05-16 13:49:09 51°14.301 2°55.177 14.2745 3.995343 32.938167 35.35523
2006-05-16 13:50:08 51°14.216 2°55.322 14.3608 3.828312 31.192786 37.00699
2006-05-16 13:51:08 51°14.134 2°55.407 14.3064 3.757296 30.568388 36.905862
2006-05-16 13:52:08 51°14.053 2°55.465 14.4164 3.742967 30.447774 37.377794
2006-05-16 13:53:09 51°13.971 2°55.524 14.6049 3.625287 29.221904 36.231674
2006-05-16 13:54:09 51°13.891 2°55.578 14.4745 3.620442 29.213917 39.602614
2006-05-16 13:55:08 51°13.807 2°55.638 14.5727 3.568614 28.699113 39.063264
2006-05-16 13:56:08 51°13.744 2°55.717 14.6411 3.528692 28.314507 41.119537
2006-05-16 13:57:09 51°13.683 2°55.831 14.7198 3.445381 27.509684 39.029554
2006-05-16 13:58:09 51°13.642 2°55.948 14.978 3.358708 26.653904 37.849725
2006-05-16 13:59:09 51°13.618 2°56.033 14.6801 3.297423 26.043879 37.209247
2006-05-16 14:00:09 51°13.608 2°56.081 14.4168 3.42832 27.384352 36.905862
2006-05-16 14:01:09 51°13.604 2°56.094 14.3065 3.557871 28.705786 36.939571
2006-05-16 14:02:09 51°13.602 2°56.098 14.251 3.595056 29.064495 36.939571
2006-05-16 14:03:09 51°13.601 2°56.098 14.2628 3.68302 29.925112 37.175537